createdAt,value
2017-04-30T00:01:44.040Z,4.77
2017-04-30T00:04:10.410Z,5.70
2017-04-30T00:06:36.806Z,4.88
2017-04-30T00:09:03.236Z,5.07
2017-04-30T00:11:29.649Z,5.37
2017-04-30T00:13:56.000Z,5.38
2017-04-30T00:16:22.385Z,5.10
2017-04-30T00:18:48.757Z,4.77
2017-04-30T00:21:15.291Z,5.65
2017-04-30T00:23:41.828Z,5.43
2017-04-30T00:26:08.214Z,6.67
2017-04-30T00:28:34.580Z,5.58
2017-04-30T00:31:00.944Z,5.73
2017-04-30T00:33:27.548Z,5.38
2017-04-30T00:35:54.095Z,5.98
2017-04-30T00:38:20.682Z,5.38
2017-04-30T00:40:47.064Z,5.32
2017-04-30T00:43:14.910Z,4.73
2017-04-30T00:45:41.316Z,7.00
2017-04-30T00:48:08.164Z,5.37
2017-04-30T00:50:34.518Z,5.40
2017-04-30T00:53:01.383Z,5.37
2017-04-30T00:55:27.714Z,5.72
2017-04-30T00:57:54.350Z,5.23
2017-04-30T01:00:20.785Z,5.40
2017-04-30T01:02:47.137Z,5.13
2017-04-30T01:05:13.504Z,5.35
2017-04-30T01:07:39.915Z,4.88
2017-04-30T01:10:06.244Z,4.68
2017-04-30T01:12:32.604Z,5.67
2017-04-30T01:14:58.981Z,5.58
2017-04-30T01:17:25.512Z,5.32
2017-04-30T01:19:51.845Z,5.40
2017-04-30T01:22:18.218Z,5.72
2017-04-30T01:24:44.570Z,4.95
2017-04-30T01:27:11.113Z,5.35
2017-04-30T01:29:37.433Z,5.85
2017-04-30T01:32:03.873Z,4.73
2017-04-30T01:34:30.185Z,5.68
2017-04-30T01:36:56.848Z,4.98
2017-04-30T01:39:23.189Z,5.88
2017-04-30T01:41:50.045Z,5.72
2017-04-30T01:44:18.154Z,4.85
2017-04-30T01:46:46.237Z,5.40
2017-04-30T01:49:15.119Z,5.32
2017-04-30T01:51:43.224Z,4.87
2017-04-30T01:54:11.668Z,5.75
2017-04-30T01:56:39.278Z,4.92
2017-04-30T01:59:07.155Z,4.37
2017-04-30T02:01:36.795Z,4.38
2017-04-30T02:04:03.171Z,4.95
2017-04-30T02:06:29.486Z,4.77
2017-04-30T02:08:55.786Z,5.92
2017-04-30T02:11:22.133Z,5.48
2017-04-30T02:13:48.481Z,6.08
2017-04-30T02:16:14.811Z,5.68
2017-04-30T02:18:41.104Z,5.72
2017-04-30T02:21:07.485Z,4.50
2017-04-30T02:23:33.816Z,4.98
2017-04-30T02:26:00.137Z,4.87
2017-04-30T02:28:26.442Z,4.43
2017-04-30T02:30:52.799Z,4.35
2017-04-30T02:33:19.131Z,5.03
2017-04-30T02:35:45.489Z,5.28
2017-04-30T02:38:11.838Z,4.70
2017-04-30T02:40:38.368Z,4.42
2017-04-30T02:43:04.691Z,4.82
2017-04-30T02:45:31.009Z,5.93
2017-04-30T02:47:57.555Z,4.73
2017-04-30T02:50:24.010Z,4.77
2017-04-30T02:52:50.360Z,5.47
2017-04-30T02:55:16.720Z,4.68
2017-04-30T02:57:43.041Z,5.02
2017-04-30T03:00:09.542Z,4.97
2017-04-30T03:02:35.929Z,4.52
2017-04-30T03:05:02.305Z,4.63
2017-04-30T03:07:28.616Z,5.55
2017-04-30T03:09:54.944Z,4.27
2017-04-30T03:12:21.264Z,4.77
2017-04-30T03:14:47.621Z,4.82
2017-04-30T03:17:13.992Z,4.38
2017-04-30T03:19:40.331Z,4.00
2017-04-30T03:22:06.653Z,5.12
2017-04-30T03:24:33.025Z,3.92
2017-04-30T03:26:59.362Z,4.82
2017-04-30T03:29:25.721Z,4.50
2017-04-30T03:31:52.057Z,5.42
2017-04-30T03:34:18.425Z,4.60
2017-04-30T03:36:44.853Z,4.80
2017-04-30T03:39:23.286Z,4.68
2017-04-30T03:42:01.721Z,4.52
2017-04-30T03:44:40.317Z,4.30
2017-04-30T03:47:18.703Z,4.87
2017-04-30T03:49:57.211Z,4.40
2017-04-30T03:52:35.616Z,5.67
2017-04-30T03:55:14.102Z,4.35
2017-04-30T03:57:52.481Z,4.72
2017-04-30T04:00:31.148Z,4.68
2017-04-30T04:03:09.568Z,5.38
2017-04-30T04:05:47.978Z,4.93
2017-04-30T04:08:26.417Z,5.00
2017-04-30T04:11:04.745Z,4.93
2017-04-30T04:13:43.050Z,4.37
2017-04-30T04:16:21.612Z,5.60
2017-04-30T04:19:00.121Z,5.17
2017-04-30T04:21:38.565Z,5.72
2017-04-30T04:24:17.066Z,5.85
2017-04-30T04:26:55.541Z,6.20
2017-04-30T04:29:34.037Z,4.87
2017-04-30T04:32:12.504Z,6.23
2017-04-30T04:34:50.841Z,4.77
2017-04-30T04:37:29.344Z,5.80
2017-04-30T04:40:07.845Z,5.22
2017-04-30T04:42:46.262Z,6.25
2017-04-30T04:45:24.664Z,5.37
2017-04-30T04:48:03.462Z,5.92
2017-04-30T04:50:42.026Z,6.50
2017-04-30T04:53:20.502Z,6.60
2017-04-30T04:55:59.071Z,5.75
2017-04-30T04:58:37.458Z,6.33
2017-04-30T05:01:15.875Z,5.58
2017-04-30T05:03:54.399Z,7.27
2017-04-30T05:06:32.981Z,6.55
2017-04-30T05:09:11.342Z,6.27
2017-04-30T05:11:49.814Z,6.57
2017-04-30T05:14:28.216Z,6.02
2017-04-30T05:17:06.766Z,6.47
2017-04-30T05:19:45.293Z,7.78
2017-04-30T05:22:23.896Z,6.45
2017-04-30T05:25:02.362Z,5.85
2017-04-30T05:27:40.754Z,7.20
2017-04-30T05:30:19.187Z,6.92
2017-04-30T05:32:57.610Z,6.28
2017-04-30T05:35:36.010Z,6.38
2017-04-30T05:38:14.432Z,6.10
2017-04-30T05:40:52.866Z,6.83
2017-04-30T05:43:31.192Z,7.60
2017-04-30T05:46:09.668Z,7.00
2017-04-30T05:48:48.047Z,8.00
2017-04-30T05:51:26.390Z,7.78
2017-04-30T05:54:04.878Z,8.05
2017-04-30T05:56:43.422Z,6.30
2017-04-30T05:59:21.806Z,7.93
2017-04-30T06:02:00.446Z,7.83
2017-04-30T06:04:38.933Z,7.85
2017-04-30T06:07:17.379Z,7.12
2017-04-30T06:09:55.817Z,7.42
2017-04-30T06:12:34.466Z,7.08
2017-04-30T06:15:13.003Z,8.80
2017-04-30T06:17:51.587Z,7.60
2017-04-30T06:20:30.157Z,7.48
2017-04-30T06:23:08.590Z,6.47
2017-04-30T06:25:47.138Z,6.85
2017-04-30T06:28:25.565Z,6.77
2017-04-30T06:31:04.699Z,6.22
2017-04-30T06:33:43.105Z,6.80
2017-04-30T06:36:21.570Z,5.83
2017-04-30T06:39:00.076Z,6.95
2017-04-30T06:41:38.442Z,5.85
2017-04-30T06:44:17.023Z,6.28
2017-04-30T06:46:55.551Z,7.18
2017-04-30T06:49:34.015Z,5.94
2017-04-30T06:52:12.406Z,6.20
2017-04-30T06:54:50.746Z,6.76
2017-04-30T06:57:29.366Z,5.82
2017-04-30T07:00:07.781Z,6.56
2017-04-30T07:02:46.253Z,6.48
2017-04-30T07:05:24.753Z,6.52
2017-04-30T07:08:03.164Z,6.80
2017-04-30T07:10:41.512Z,6.58
2017-04-30T07:13:19.855Z,6.74
2017-04-30T07:15:58.231Z,6.60
2017-04-30T07:18:36.695Z,6.20
2017-04-30T07:21:15.081Z,6.62
2017-04-30T07:23:53.533Z,6.00
2017-04-30T07:26:31.875Z,5.32
2017-04-30T07:29:10.224Z,6.32
2017-04-30T07:31:48.822Z,6.58
2017-04-30T07:34:27.257Z,6.68
2017-04-30T07:37:05.814Z,6.38
2017-04-30T07:39:44.280Z,6.66
2017-04-30T07:42:22.787Z,7.06
2017-04-30T07:44:49.164Z,6.18
2017-04-30T07:47:15.493Z,6.26
2017-04-30T07:49:41.876Z,5.68
2017-04-30T07:52:08.222Z,5.72
2017-04-30T07:54:34.542Z,7.08
2017-04-30T07:57:00.880Z,7.08
2017-04-30T07:59:27.346Z,6.20
2017-04-30T08:01:53.697Z,6.72
2017-04-30T08:04:20.031Z,6.06
2017-04-30T08:06:46.381Z,5.86
2017-04-30T08:09:12.791Z,5.58
2017-04-30T08:11:39.136Z,6.38
2017-04-30T08:14:05.465Z,5.98
2017-04-30T08:16:31.819Z,6.38
2017-04-30T08:18:58.166Z,4.98
2017-04-30T08:21:24.492Z,6.22
2017-04-30T08:23:50.798Z,6.26
2017-04-30T08:26:17.135Z,5.88
2017-04-30T08:28:43.573Z,6.04
2017-04-30T08:31:09.919Z,6.44
2017-04-30T08:33:36.219Z,5.96
2017-04-30T08:36:02.554Z,5.68
2017-04-30T08:38:28.909Z,5.34
2017-04-30T08:40:55.283Z,5.50
2017-04-30T08:43:21.631Z,6.18
2017-04-30T08:45:48.080Z,5.54
2017-04-30T08:48:14.392Z,5.92
2017-04-30T08:50:40.732Z,5.50
2017-04-30T08:53:07.059Z,5.70
2017-04-30T08:55:33.403Z,5.90
2017-04-30T08:57:59.725Z,6.04
2017-04-30T09:00:26.025Z,6.02
2017-04-30T09:02:52.379Z,6.18
2017-04-30T09:05:18.709Z,6.22
2017-04-30T09:07:45.048Z,6.62
2017-04-30T09:10:11.381Z,6.22
2017-04-30T09:12:37.715Z,6.30
2017-04-30T09:15:04.163Z,6.54
2017-04-30T09:17:30.442Z,6.46
2017-04-30T09:19:56.769Z,6.12
2017-04-30T09:22:23.118Z,6.34
2017-04-30T09:24:49.584Z,6.40
2017-04-30T09:27:15.891Z,6.22
2017-04-30T09:29:42.232Z,6.30
2017-04-30T09:32:08.561Z,7.02
2017-04-30T09:34:34.960Z,6.66
2017-04-30T09:37:01.294Z,5.78
2017-04-30T09:39:27.649Z,5.86
2017-04-30T09:41:53.998Z,5.72
2017-04-30T09:44:20.317Z,6.28
2017-04-30T09:46:46.685Z,6.40
2017-04-30T09:49:13.034Z,6.22
2017-04-30T09:51:39.445Z,5.20
2017-04-30T09:54:05.793Z,6.40
2017-04-30T09:56:32.125Z,5.58
2017-04-30T09:58:58.588Z,5.22
2017-04-30T10:01:24.995Z,6.06
2017-04-30T10:03:51.347Z,6.38
2017-04-30T10:06:17.718Z,5.58
2017-04-30T10:08:44.251Z,5.44
2017-04-30T10:11:10.719Z,5.62
2017-04-30T10:13:37.645Z,5.90
2017-04-30T10:16:04.080Z,5.88
2017-04-30T10:18:30.650Z,5.28
2017-04-30T10:20:56.991Z,6.12
2017-04-30T10:23:23.322Z,5.60
2017-04-30T10:25:49.702Z,5.66
2017-04-30T10:28:16.241Z,5.96
2017-04-30T10:30:42.558Z,5.44
2017-04-30T10:33:08.886Z,5.36
2017-04-30T10:35:35.258Z,5.48
2017-04-30T10:38:01.603Z,5.92
2017-04-30T10:40:27.936Z,4.96
2017-04-30T10:42:54.267Z,5.52
2017-04-30T10:45:20.635Z,5.48
2017-04-30T10:47:46.958Z,5.60
2017-04-30T10:50:13.314Z,5.04
2017-04-30T10:52:39.655Z,4.80
2017-04-30T10:55:06.170Z,5.20
2017-04-30T10:57:32.511Z,5.28
2017-04-30T10:59:58.848Z,4.92
2017-04-30T11:02:25.199Z,5.48
2017-04-30T11:04:51.665Z,5.32
2017-04-30T11:07:18.949Z,4.78
2017-04-30T11:09:45.279Z,4.64
2017-04-30T11:12:11.774Z,5.12
2017-04-30T11:14:38.097Z,4.48
2017-04-30T11:17:04.448Z,5.38
2017-04-30T11:19:30.762Z,4.28
2017-04-30T11:21:57.358Z,5.60
2017-04-30T11:24:23.698Z,5.66
2017-04-30T11:26:50.042Z,5.30
2017-04-30T11:29:16.393Z,5.78
2017-04-30T11:31:42.744Z,5.12
2017-04-30T11:34:09.095Z,4.54
2017-04-30T11:36:35.441Z,4.50
2017-04-30T11:39:01.764Z,4.90
2017-04-30T11:41:28.090Z,4.84
2017-04-30T11:43:54.435Z,4.20
2017-04-30T11:46:20.780Z,4.94
2017-04-30T11:48:47.123Z,4.02
2017-04-30T11:51:13.437Z,4.50
2017-04-30T11:53:39.783Z,5.18
2017-04-30T11:56:06.162Z,5.18
2017-04-30T11:58:32.643Z,4.52
2017-04-30T12:00:59.001Z,5.32
2017-04-30T12:03:25.317Z,4.96
2017-04-30T12:05:51.654Z,4.92
2017-04-30T12:08:18.137Z,4.70
2017-04-30T12:10:44.481Z,6.00
2017-04-30T12:13:10.819Z,4.36
2017-04-30T12:15:37.272Z,4.04
2017-04-30T12:18:03.730Z,4.36
2017-04-30T12:20:30.640Z,5.24
2017-04-30T12:22:56.934Z,4.38
2017-04-30T12:25:23.340Z,4.28
2017-04-30T12:27:49.690Z,4.38
2017-04-30T12:30:16.016Z,3.72
2017-04-30T12:32:42.377Z,4.16
2017-04-30T12:35:08.828Z,4.60
2017-04-30T12:37:35.208Z,4.36
2017-04-30T12:40:01.530Z,4.44
2017-04-30T12:42:27.850Z,4.10
2017-04-30T12:44:54.278Z,4.82
2017-04-30T12:47:20.665Z,4.16
2017-04-30T12:49:46.986Z,5.06
2017-04-30T12:52:13.322Z,4.26
2017-04-30T12:54:39.627Z,3.92
2017-04-30T12:57:05.965Z,4.60
2017-04-30T12:59:32.277Z,3.74
2017-04-30T13:01:58.617Z,4.60
2017-04-30T13:04:25.128Z,4.62
2017-04-30T13:06:51.512Z,4.38
2017-04-30T13:09:17.933Z,4.18
2017-04-30T13:11:44.285Z,4.50
2017-04-30T13:14:10.656Z,4.36
2017-04-30T13:16:37.033Z,4.42
2017-04-30T13:19:03.527Z,4.16
2017-04-30T13:21:29.894Z,4.38
2017-04-30T13:23:56.275Z,3.70
2017-04-30T13:26:22.639Z,4.40
2017-04-30T13:28:49.006Z,4.18
2017-04-30T13:31:15.372Z,3.58
2017-04-30T13:33:41.721Z,3.32
2017-04-30T13:36:08.050Z,3.12
2017-04-30T13:38:34.384Z,3.90
2017-04-30T13:41:00.728Z,4.12
2017-04-30T13:43:27.067Z,3.82
2017-04-30T13:45:53.382Z,3.48
2017-04-30T13:48:19.713Z,3.38
2017-04-30T13:50:46.049Z,3.82
2017-04-30T13:53:12.558Z,3.92
2017-04-30T13:55:38.885Z,3.16
2017-04-30T13:58:05.208Z,3.94
2017-04-30T14:00:31.639Z,3.60
2017-04-30T14:02:57.966Z,3.60
2017-04-30T14:05:24.333Z,3.08
2017-04-30T14:07:50.662Z,3.72
2017-04-30T14:10:17.421Z,3.12
2017-04-30T14:12:43.735Z,3.24
2017-04-30T14:15:10.107Z,3.20
2017-04-30T14:17:36.603Z,2.50
2017-04-30T14:20:02.959Z,3.00
2017-04-30T14:22:29.304Z,2.88
2017-04-30T14:24:56.172Z,3.52
2017-04-30T14:27:22.563Z,2.96
2017-04-30T14:29:48.927Z,2.72
2017-04-30T14:32:15.457Z,3.12
2017-04-30T14:34:42.275Z,3.20
2017-04-30T14:37:08.624Z,3.70
2017-04-30T14:39:34.998Z,4.06
2017-04-30T14:42:01.352Z,3.06
2017-04-30T14:44:27.733Z,2.90
2017-04-30T14:46:54.075Z,2.66
2017-04-30T14:49:20.428Z,2.86
2017-04-30T14:51:47.025Z,3.42
2017-04-30T14:54:13.379Z,4.14
2017-04-30T14:56:40.376Z,2.88
2017-04-30T14:59:06.805Z,3.32
2017-04-30T15:01:33.111Z,3.06
2017-04-30T15:03:59.461Z,3.68
2017-04-30T15:06:25.793Z,2.94
2017-04-30T15:08:52.353Z,3.20
2017-04-30T15:11:18.707Z,2.30
2017-04-30T15:13:45.053Z,3.28
2017-04-30T15:16:11.383Z,3.48
2017-04-30T15:18:37.898Z,3.28
2017-04-30T15:21:04.222Z,3.34
2017-04-30T15:23:30.580Z,3.24
2017-04-30T15:25:56.929Z,3.18
2017-04-30T15:28:23.387Z,2.80
2017-04-30T15:30:49.846Z,2.68
2017-04-30T15:33:16.234Z,2.94
2017-04-30T15:35:42.580Z,3.54
2017-04-30T15:38:08.912Z,3.22
2017-04-30T15:40:35.401Z,3.04
2017-04-30T15:43:01.748Z,2.70
2017-04-30T15:45:28.386Z,2.80
2017-04-30T15:47:54.745Z,3.62
2017-04-30T15:50:21.085Z,3.02
2017-04-30T15:52:47.405Z,3.26
2017-04-30T15:55:13.891Z,3.08
2017-04-30T15:57:40.225Z,4.00
2017-04-30T16:00:07.014Z,3.56
2017-04-30T16:02:33.689Z,5.94
2017-04-30T16:04:59.993Z,3.12
2017-04-30T16:07:26.374Z,2.90
2017-04-30T16:09:52.724Z,2.68
2017-04-30T16:12:19.212Z,2.66
2017-04-30T16:14:45.546Z,2.76
2017-04-30T16:17:11.865Z,3.52
2017-04-30T16:19:38.232Z,2.90
2017-04-30T16:22:04.554Z,2.80
2017-04-30T16:24:30.869Z,2.56
2017-04-30T16:26:57.199Z,2.80
2017-04-30T16:29:23.533Z,3.06
2017-04-30T16:31:49.881Z,2.80
2017-04-30T16:34:16.232Z,2.82
2017-04-30T16:36:42.573Z,2.88
2017-04-30T16:39:08.884Z,2.62
2017-04-30T16:41:35.219Z,2.92
2017-04-30T16:44:01.564Z,2.82
2017-04-30T16:46:27.905Z,2.84
2017-04-30T16:48:54.569Z,2.76
2017-04-30T16:51:20.898Z,4.56
2017-04-30T16:53:47.185Z,5.12
2017-04-30T16:56:13.515Z,2.68
2017-04-30T16:58:39.977Z,4.00
2017-04-30T17:01:06.293Z,3.04
2017-04-30T17:03:32.652Z,3.70
2017-04-30T17:05:58.976Z,2.68
2017-04-30T17:08:25.416Z,2.48
2017-04-30T17:10:51.733Z,2.94
2017-04-30T17:13:18.084Z,2.54
2017-04-30T17:15:44.416Z,3.16
2017-04-30T17:18:10.749Z,2.60
2017-04-30T17:20:37.169Z,2.64
2017-04-30T17:23:03.506Z,2.90
2017-04-30T17:25:29.824Z,2.92
2017-04-30T17:27:56.133Z,4.28
2017-04-30T17:30:22.452Z,3.00
2017-04-30T17:32:48.818Z,3.06
2017-04-30T17:35:15.296Z,2.58
2017-04-30T17:37:41.599Z,3.14
2017-04-30T17:40:07.968Z,2.64
2017-04-30T17:42:34.293Z,2.58
2017-04-30T17:45:00.900Z,3.18
2017-04-30T17:47:27.224Z,2.84
2017-04-30T17:49:53.542Z,2.86
2017-04-30T17:52:19.869Z,2.92
2017-04-30T17:54:47.087Z,3.02
2017-04-30T17:57:13.418Z,2.40
2017-04-30T17:59:39.764Z,3.10
2017-04-30T18:02:06.219Z,2.76
2017-04-30T18:04:32.581Z,2.80
2017-04-30T18:06:58.921Z,3.06
2017-04-30T18:09:25.247Z,3.06
2017-04-30T18:11:51.561Z,2.58
2017-04-30T18:14:17.903Z,3.44
2017-04-30T18:16:44.281Z,2.72
2017-04-30T18:19:10.616Z,2.86
2017-04-30T18:21:36.922Z,2.60
2017-04-30T18:24:03.260Z,2.74
2017-04-30T18:26:29.598Z,2.68
2017-04-30T18:28:56.793Z,3.88
2017-04-30T18:31:23.198Z,3.04
2017-04-30T18:33:49.517Z,3.80
2017-04-30T18:36:15.858Z,3.16
2017-04-30T18:38:42.185Z,2.66
2017-04-30T18:41:09.136Z,3.16
2017-04-30T18:43:35.478Z,2.80
2017-04-30T18:46:02.080Z,2.88
2017-04-30T18:48:28.421Z,2.40
2017-04-30T18:50:54.771Z,2.66
2017-04-30T18:53:21.111Z,2.92
2017-04-30T18:55:47.591Z,2.50
2017-04-30T18:58:13.930Z,2.38
2017-04-30T19:00:40.277Z,2.56
2017-04-30T19:03:06.593Z,3.08
2017-04-30T19:05:33.008Z,2.56
2017-04-30T19:07:59.349Z,2.94
2017-04-30T19:10:25.670Z,2.86
2017-04-30T19:12:51.982Z,2.90
2017-04-30T19:15:18.299Z,2.68
2017-04-30T19:17:44.612Z,2.64
2017-04-30T19:20:10.951Z,2.50
2017-04-30T19:22:37.273Z,2.90
2017-04-30T19:25:03.615Z,2.50
2017-04-30T19:27:29.959Z,2.60
2017-04-30T19:29:56.295Z,3.00
2017-04-30T19:32:22.618Z,2.50
2017-04-30T19:34:48.980Z,2.58
2017-04-30T19:37:15.328Z,2.94
2017-04-30T19:39:41.664Z,3.10
2017-04-30T19:42:08.126Z,2.80
2017-04-30T19:44:34.484Z,2.66
2017-04-30T19:47:00.831Z,2.60
2017-04-30T19:49:27.162Z,2.70
2017-04-30T19:51:53.574Z,2.76
2017-04-30T19:54:19.891Z,3.42
2017-04-30T19:56:46.263Z,2.82
2017-04-30T19:59:13.112Z,3.20
2017-04-30T20:01:39.414Z,3.38
2017-04-30T20:04:05.738Z,3.18
2017-04-30T20:06:32.067Z,3.16
2017-04-30T20:08:58.375Z,3.74
2017-04-30T20:11:24.716Z,3.62
2017-04-30T20:13:51.060Z,4.36
2017-04-30T20:16:17.412Z,3.58
2017-04-30T20:18:43.903Z,4.06
2017-04-30T20:21:10.245Z,4.38
2017-04-30T20:23:36.573Z,4.68
2017-04-30T20:26:02.928Z,5.24
2017-04-30T20:28:29.389Z,4.62
2017-04-30T20:30:55.726Z,5.38
2017-04-30T20:33:22.043Z,5.42
2017-04-30T20:35:48.386Z,5.30
2017-04-30T20:38:14.916Z,5.52
2017-04-30T20:40:41.245Z,4.84
2017-04-30T20:43:07.591Z,4.84
2017-04-30T20:45:33.945Z,4.88
2017-04-30T20:48:00.270Z,4.56
2017-04-30T20:50:26.585Z,4.22
2017-04-30T20:52:52.945Z,4.16
2017-04-30T20:55:19.247Z,4.16
2017-04-30T20:57:45.592Z,3.88
2017-04-30T21:00:11.918Z,3.48
2017-04-30T21:02:38.298Z,3.78
2017-04-30T21:05:04.777Z,3.30
2017-04-30T21:07:31.167Z,3.90
2017-04-30T21:09:57.495Z,3.64
2017-04-30T21:12:23.811Z,4.00
2017-04-30T21:14:50.454Z,3.46
2017-04-30T21:17:16.860Z,3.50
2017-04-30T21:19:43.185Z,3.72
2017-04-30T21:22:09.521Z,4.08
2017-04-30T21:24:35.901Z,3.44
2017-04-30T21:27:02.224Z,3.56
2017-04-30T21:29:28.606Z,3.60
2017-04-30T21:31:54.895Z,4.18
2017-04-30T21:34:21.229Z,4.60
2017-04-30T21:36:49.155Z,4.46
2017-04-30T21:39:16.424Z,4.06
2017-04-30T21:41:42.789Z,3.94
2017-04-30T21:44:09.108Z,3.90
2017-04-30T21:46:35.488Z,4.28
2017-04-30T21:49:01.859Z,4.10
2017-04-30T21:51:28.187Z,4.02
2017-04-30T21:53:54.507Z,3.86
2017-04-30T21:56:20.932Z,3.88
2017-04-30T21:58:47.281Z,3.74
2017-04-30T22:01:13.633Z,4.48
2017-04-30T22:03:39.986Z,3.58
2017-04-30T22:06:06.484Z,4.78
2017-04-30T22:08:32.814Z,4.68
2017-04-30T22:10:59.142Z,4.78
2017-04-30T22:13:25.470Z,5.20
2017-04-30T22:15:51.820Z,5.10
2017-04-30T22:18:18.840Z,4.88
2017-04-30T22:20:45.222Z,5.00
2017-04-30T22:23:11.729Z,5.10
2017-04-30T22:25:38.085Z,5.00
2017-04-30T22:28:04.411Z,4.58
2017-04-30T22:30:30.734Z,4.68
2017-04-30T22:32:57.066Z,4.76
2017-04-30T22:35:23.391Z,4.80
2017-04-30T22:37:49.729Z,4.80
2017-04-30T22:40:16.227Z,5.30
2017-04-30T22:42:42.568Z,4.92
2017-04-30T22:45:08.906Z,5.44
2017-04-30T22:47:35.268Z,4.84
2017-04-30T22:50:01.765Z,4.84
2017-04-30T22:52:28.111Z,5.80
2017-04-30T22:54:54.459Z,5.94
2017-04-30T22:57:20.812Z,5.62
2017-04-30T22:59:47.201Z,5.68
2017-04-30T23:02:13.553Z,5.58
2017-04-30T23:04:39.873Z,5.32
2017-04-30T23:07:06.217Z,6.08
2017-04-30T23:09:32.581Z,5.16
2017-04-30T23:11:58.913Z,6.04
2017-04-30T23:14:25.276Z,6.64
2017-04-30T23:16:51.753Z,6.16
2017-04-30T23:19:18.066Z,6.28
2017-04-30T23:21:44.394Z,5.94
2017-04-30T23:24:10.721Z,6.32
2017-04-30T23:26:37.281Z,6.90
2017-04-30T23:29:03.636Z,6.18
2017-04-30T23:31:29.967Z,6.32
2017-04-30T23:33:56.306Z,6.84
2017-04-30T23:36:22.682Z,6.72
2017-04-30T23:38:49.029Z,6.22
2017-04-30T23:41:15.367Z,7.16
2017-04-30T23:43:41.674Z,6.40
2017-04-30T23:46:08.022Z,6.70
2017-04-30T23:48:34.382Z,7.30
2017-04-30T23:51:00.776Z,6.30
2017-04-30T23:53:27.294Z,6.54
2017-04-30T23:55:53.644Z,6.92
2017-04-30T23:58:19.999Z,7.30
